Date,TemperatureHighF,TemperatureAvgF,TemperatureLowF,DewpointHighF,DewpointAvgF,DewpointLowF,HumidityHigh,HumidityAvg,HumidityLow,PressureMaxIn,PressureMinIn,WindSpeedMaxMPH,WindSpeedAvgMPH,GustSpeedMaxMPH,PrecipitationSumIn
2013-1-1,36.8,31.7,18.8,28.1,21.5,10.0,74,66,51,29.98,29.78,23,8,23,0.00
2013-1-2,26.9,20.8,13.0,17.6,12.8,8.0,81,71,59,30.14,29.94,18,3,18,0.00
2013-1-3,24.6,15.9,4.8,16.3,7.8,-1.4,80,70,61,30.18,30.02,10,3,10,0.00
2013-1-4,35.3,32.2,28.6,24.6,22.2,19.6,79,67,59,30.00,29.86,29,13,29,0.00
2013-1-5,39.4,31.9,25.6,25.8,22.2,19.4,82,67,54,30.25,29.91,20,6,20,0.00
2013-1-6,41.6,32.9,25.9,29.7,26.6,22.0,95,78,60,30.21,29.93,15,3,15,0.00
2013-1-7,37.4,33.2,25.8,29.9,25.5,21.2,83,73,58,30.38,30.01,15,4,15,0.00
2013-1-8,43.7,35.0,25.0,30.2,26.9,20.9,85,73,56,30.39,30.28,14,4,14,0.00
2013-1-9,44.5,37.8,25.4,35.9,31.9,24.2,96,79,67,30.37,30.07,23,8,23,0.00
2013-1-10,43.4,38.9,33.0,33.5,25.4,23.1,77,58,47,30.54,30.15,18,5,18,0.00
2013-1-11,38.0,33.1,27.4,38.0,29.1,23.5,100,86,70,30.53,30.12,8,2,8,0.39
2013-1-12,44.1,40.3,35.9,44.1,40.3,35.9,100,100,100,30.15,30.09,6,0,6,0.06
2013-1-13,45.8,42.0,38.1,45.8,42.0,38.1,100,100,100,30.14,29.99,12,1,12,0.00
2013-1-14,50.5,43.9,34.7,50.5,40.6,26.0,100,89,67,30.30,29.89,14,4,14,0.00
2013-1-15,36.3,33.7,30.6,28.1,25.7,24.3,80,72,65,30.34,30.22,9,3,9,0.00
2013-1-16,32.8,31.0,29.1,32.6,30.0,23.7,100,96,69,30.22,29.81,5,0,5,0.49
2013-1-17,39.6,33.5,26.3,33.0,28.1,15.1,100,81,62,30.10,29.86,15,3,15,0.00
2013-1-18,26.4,22.0,18.0,15.5,9.7,3.2,69,59,44,30.43,30.03,17,6,17,0.00
2013-1-19,43.1,35.3,23.1,29.5,23.4,12.0,72,62,52,30.36,29.86,21,11,21,0.00
2013-1-20,48.8,38.7,25.5,30.2,24.0,9.7,76,57,34,29.99,29.59,33,14,33,0.00
2013-1-21,28.0,24.1,19.6,22.6,15.0,8.8,94,69,50,30.07,29.77,17,4,17,0.01
2013-1-22,21.3,16.6,9.0,18.8,4.8,-3.4,94,60,44,30.12,29.77,27,10,27,0.00
2013-1-23,16.9,10.0,4.9,1.4,-1.8,-3.9,71,59,43,30.17,30.07,18,7,18,0.00
2013-1-24,19.5,10.4,2.0,3.2,-0.9,-3.6,78,61,39,30.30,30.13,21,7,21,0.00
2013-1-25,20.7,14.6,7.8,14.2,5.1,1.2,90,67,48,30.37,30.03,12,2,12,0.01
2013-1-26,23.6,16.4,10.1,13.8,8.4,4.0,91,72,51,30.32,30.02,17,4,17,0.00
2013-1-27,30.9,20.4,9.9,12.0,6.8,3.1,84,58,35,30.46,30.31,15,3,15,0.00
2013-1-28,32.3,25.7,19.3,32.1,20.5,3.0,99,82,48,30.46,29.96,8,1,8,0.18
2013-1-29,37.9,34.5,31.3,37.9,34.5,31.1,100,100,99,30.14,29.95,8,2,8,0.03
2013-1-30,54.2,45.0,34.3,54.2,45.0,34.3,100,100,100,30.09,29.36,18,4,18,0.08
2013-1-31,58.1,43.5,27.5,58.1,34.5,13.0,100,72,40,29.68,29.00,37,19,37,0.66